sensor_id;sensor_type;location;lat;lon;timestamp;P1;durP1;ratioP1;P2;durP2;ratioP2
12476;SDS011;6303;51.504;6.300;2022-12-05T00:00:28;7.03;;;6.00;;
12476;SDS011;6303;51.504;6.300;2022-12-05T00:02:56;7.90;;;6.28;;
12476;SDS011;6303;51.504;6.300;2022-12-05T00:05:23;7.68;;;6.22;;
12476;SDS011;6303;51.504;6.300;2022-12-05T00:07:50;6.75;;;6.05;;
12476;SDS011;6303;51.504;6.300;2022-12-05T00:10:17;7.00;;;6.18;;
12476;SDS011;6303;51.504;6.300;2022-12-05T00:12:44;6.40;;;5.78;;
12476;SDS011;6303;51.504;6.300;2022-12-05T00:15:11;7.03;;;5.90;;
12476;SDS011;6303;51.504;6.300;2022-12-05T00:17:38;7.82;;;5.97;;
12476;SDS011;6303;51.504;6.300;2022-12-05T00:20:08;6.35;;;5.65;;
12476;SDS011;6303;51.504;6.300;2022-12-05T00:22:35;6.93;;;6.22;;
12476;SDS011;6303;51.504;6.300;2022-12-05T00:25:03;6.82;;;6.13;;
12476;SDS011;6303;51.504;6.300;2022-12-05T00:27:31;6.40;;;5.80;;
12476;SDS011;6303;51.504;6.300;2022-12-05T00:29:59;6.38;;;5.78;;
12476;SDS011;6303;51.504;6.300;2022-12-05T00:32:27;6.20;;;5.60;;
12476;SDS011;6303;51.504;6.300;2022-12-05T00:34:54;7.95;;;6.15;;
12476;SDS011;6303;51.504;6.300;2022-12-05T00:37:22;8.55;;;5.90;;
12476;SDS011;6303;51.504;6.300;2022-12-05T00:39:50;7.28;;;6.07;;
12476;SDS011;6303;51.504;6.300;2022-12-05T00:42:17;6.22;;;5.63;;
12476;SDS011;6303;51.504;6.300;2022-12-05T00:44:44;6.78;;;5.90;;
12476;SDS011;6303;51.504;6.300;2022-12-05T00:47:11;6.35;;;5.75;;
12476;SDS011;6303;51.504;6.300;2022-12-05T00:49:38;6.85;;;5.45;;
12476;SDS011;6303;51.504;6.300;2022-12-05T00:52:05;6.20;;;5.60;;
12476;SDS011;6303;51.504;6.300;2022-12-05T00:54:33;6.45;;;5.57;;
12476;SDS011;6303;51.504;6.300;2022-12-05T00:57:00;6.70;;;6.05;;
12476;SDS011;6303;51.504;6.300;2022-12-05T00:59:27;6.25;;;5.65;;
12476;SDS011;6303;51.504;6.300;2022-12-05T01:01:54;6.25;;;5.65;;
12476;SDS011;6303;51.504;6.300;2022-12-05T01:04:22;6.22;;;5.63;;
12476;SDS011;6303;51.504;6.300;2022-12-05T01:06:53;6.50;;;5.88;;
12476;SDS011;6303;51.504;6.300;2022-12-05T01:09:21;6.50;;;5.90;;
12476;SDS011;6303;51.504;6.300;2022-12-05T01:11:50;6.97;;;6.20;;
12476;SDS011;6303;51.504;6.300;2022-12-05T01:14:18;6.25;;;5.60;;
12476;SDS011;6303;51.504;6.300;2022-12-05T01:16:46;6.28;;;5.68;;
12476;SDS011;6303;51.504;6.300;2022-12-05T01:19:16;6.10;;;5.50;;
12476;SDS011;6303;51.504;6.300;2022-12-05T01:21:44;6.43;;;5.82;;
12476;SDS011;6303;51.504;6.300;2022-12-05T01:24:12;6.55;;;5.95;;
12476;SDS011;6303;51.504;6.300;2022-12-05T01:26:40;6.57;;;5.95;;
12476;SDS011;6303;51.504;6.300;2022-12-05T01:29:09;6.40;;;5.80;;
12476;SDS011;6303;51.504;6.300;2022-12-05T01:31:38;6.75;;;6.03;;
12476;SDS011;6303;51.504;6.300;2022-12-05T01:34:06;6.65;;;6.00;;
12476;SDS011;6303;51.504;6.300;2022-12-05T01:36:36;6.20;;;5.60;;
12476;SDS011;6303;51.504;6.300;2022-12-05T01:39:04;6.72;;;6.00;;
12476;SDS011;6303;51.504;6.300;2022-12-05T01:41:32;6.28;;;5.68;;
12476;SDS011;6303;51.504;6.300;2022-12-05T01:44:01;6.65;;;5.80;;
12476;SDS011;6303;51.504;6.300;2022-12-05T01:46:31;6.50;;;5.90;;
12476;SDS011;6303;51.504;6.300;2022-12-05T01:49:01;6.63;;;5.97;;
12476;SDS011;6303;51.504;6.300;2022-12-05T01:51:33;6.82;;;6.05;;
12476;SDS011;6303;51.504;6.300;2022-12-05T01:54:01;6.55;;;5.75;;
12476;SDS011;6303;51.504;6.300;2022-12-05T01:56:29;6.05;;;5.45;;
12476;SDS011;6303;51.504;6.300;2022-12-05T01:58:58;6.60;;;5.90;;
12476;SDS011;6303;51.504;6.300;2022-12-05T02:01:27;6.47;;;5.88;;
12476;SDS011;6303;51.504;6.300;2022-12-05T02:03:55;6.50;;;5.80;;
12476;SDS011;6303;51.504;6.300;2022-12-05T02:06:24;6.50;;;5.90;;
12476;SDS011;6303;51.504;6.300;2022-12-05T02:08:52;6.43;;;5.82;;
12476;SDS011;6303;51.504;6.300;2022-12-05T02:11:20;6.97;;;5.72;;
12476;SDS011;6303;51.504;6.300;2022-12-05T02:13:51;6.68;;;5.97;;
12476;SDS011;6303;51.504;6.300;2022-12-05T02:16:30;6.55;;;5.90;;
12476;SDS011;6303;51.504;6.300;2022-12-05T02:22:19;6.43;;;5.82;;
12476;SDS011;6303;51.504;6.300;2022-12-05T02:25:04;6.43;;;5.80;;
12476;SDS011;6303;51.504;6.300;2022-12-05T02:27:47;6.47;;;5.88;;
12476;SDS011;6303;51.504;6.300;2022-12-05T02:30:34;7.25;;;6.55;;
12476;SDS011;6303;51.504;6.300;2022-12-05T02:33:07;7.18;;;5.85;;
12476;SDS011;6303;51.504;6.300;2022-12-05T02:35:46;7.40;;;6.07;;
12476;SDS011;6303;51.504;6.300;2022-12-05T02:38:21;6.97;;;6.20;;
12476;SDS011;6303;51.504;6.300;2022-12-05T02:40:56;6.45;;;5.78;;
12476;SDS011;6303;51.504;6.300;2022-12-05T02:43:29;6.43;;;5.80;;
12476;SDS011;6303;51.504;6.300;2022-12-05T02:46:03;6.50;;;5.90;;
12476;SDS011;6303;51.504;6.300;2022-12-05T02:48:34;7.63;;;6.38;;
12476;SDS011;6303;51.504;6.300;2022-12-05T02:51:03;6.05;;;5.45;;
12476;SDS011;6303;51.504;6.300;2022-12-05T02:53:32;6.40;;;5.80;;
12476;SDS011;6303;51.504;6.300;2022-12-05T02:56:02;6.70;;;6.00;;
12476;SDS011;6303;51.504;6.300;2022-12-05T02:58:33;6.82;;;6.13;;
12476;SDS011;6303;51.504;6.300;2022-12-05T03:01:05;6.32;;;5.72;;
12476;SDS011;6303;51.504;6.300;2022-12-05T03:03:32;6.07;;;5.47;;
12476;SDS011;6303;51.504;6.300;2022-12-05T03:06:01;7.03;;;6.32;;
12476;SDS011;6303;51.504;6.300;2022-12-05T03:08:32;6.57;;;5.88;;
12476;SDS011;6303;51.504;6.300;2022-12-05T03:11:03;6.72;;;6.03;;
12476;SDS011;6303;51.504;6.300;2022-12-05T03:13:31;6.25;;;5.63;;
12476;SDS011;6303;51.504;6.300;2022-12-05T03:16:04;6.53;;;5.88;;
12476;SDS011;6303;51.504;6.300;2022-12-05T03:18:38;6.53;;;5.82;;
12476;SDS011;6303;51.504;6.300;2022-12-05T03:21:13;6.80;;;6.20;;
12476;SDS011;6303;51.504;6.300;2022-12-05T03:23:46;6.38;;;5.78;;
12476;SDS011;6303;51.504;6.300;2022-12-05T03:26:19;6.25;;;5.65;;
12476;SDS011;6303;51.504;6.300;2022-12-05T03:28:56;6.50;;;5.90;;
12476;SDS011;6303;51.504;6.300;2022-12-05T03:31:37;6.40;;;5.80;;
12476;SDS011;6303;51.504;6.300;2022-12-05T03:34:07;6.32;;;5.72;;
12476;SDS011;6303;51.504;6.300;2022-12-05T03:36:43;6.55;;;5.95;;
12476;SDS011;6303;51.504;6.300;2022-12-05T03:39:16;6.22;;;5.63;;
12476;SDS011;6303;51.504;6.300;2022-12-05T03:41:50;6.45;;;5.75;;
12476;SDS011;6303;51.504;6.300;2022-12-05T03:44:24;6.10;;;5.57;;
12476;SDS011;6303;51.504;6.300;2022-12-05T03:46:59;6.32;;;5.57;;
12476;SDS011;6303;51.504;6.300;2022-12-05T03:49:32;6.80;;;6.10;;
12476;SDS011;6303;51.504;6.300;2022-12-05T03:52:03;6.43;;;5.80;;
12476;SDS011;6303;51.504;6.300;2022-12-05T03:54:35;6.50;;;5.88;;
12476;SDS011;6303;51.504;6.300;2022-12-05T03:57:06;6.78;;;6.18;;
12476;SDS011;6303;51.504;6.300;2022-12-05T03:59:38;6.88;;;5.95;;
12476;SDS011;6303;51.504;6.300;2022-12-05T04:02:12;5.80;;;5.30;;
12476;SDS011;6303;51.504;6.300;2022-12-05T04:04:47;6.45;;;5.85;;
12476;SDS011;6303;51.504;6.300;2022-12-05T04:07:19;6.55;;;5.68;;
12476;SDS011;6303;51.504;6.300;2022-12-05T04:09:49;6.15;;;5.55;;
12476;SDS011;6303;51.504;6.300;2022-12-05T04:12:21;6.72;;;5.78;;
12476;SDS011;6303;51.504;6.300;2022-12-05T04:14:52;6.28;;;5.70;;
12476;SDS011;6303;51.504;6.300;2022-12-05T04:17:26;6.07;;;5.57;;
12476;SDS011;6303;51.504;6.300;2022-12-05T04:19:58;6.72;;;6.03;;
12476;SDS011;6303;51.504;6.300;2022-12-05T04:22:47;6.50;;;5.80;;
12476;SDS011;6303;51.504;6.300;2022-12-05T04:25:14;6.45;;;5.75;;
12476;SDS011;6303;51.504;6.300;2022-12-05T04:28:04;7.00;;;6.35;;
12476;SDS011;6303;51.504;6.300;2022-12-05T04:30:40;6.55;;;5.82;;
12476;SDS011;6303;51.504;6.300;2022-12-05T04:33:14;7.03;;;6.32;;
12476;SDS011;6303;51.504;6.300;2022-12-05T04:35:44;6.55;;;5.95;;
12476;SDS011;6303;51.504;6.300;2022-12-05T04:38:16;6.40;;;5.80;;
12476;SDS011;6303;51.504;6.300;2022-12-05T04:40:49;6.20;;;5.60;;
12476;SDS011;6303;51.504;6.300;2022-12-05T04:43:21;6.25;;;5.65;;
12476;SDS011;6303;51.504;6.300;2022-12-05T04:45:50;6.50;;;5.88;;
12476;SDS011;6303;51.504;6.300;2022-12-05T04:48:20;6.93;;;6.22;;
12476;SDS011;6303;51.504;6.300;2022-12-05T04:50:50;6.70;;;6.00;;
12476;SDS011;6303;51.504;6.300;2022-12-05T04:53:21;6.60;;;5.93;;
12476;SDS011;6303;51.504;6.300;2022-12-05T04:55:52;6.72;;;6.13;;
12476;SDS011;6303;51.504;6.300;2022-12-05T04:58:22;6.70;;;6.07;;
12476;SDS011;6303;51.504;6.300;2022-12-05T05:00:52;6.32;;;5.72;;
12476;SDS011;6303;51.504;6.300;2022-12-05T05:03:26;6.70;;;6.10;;
12476;SDS011;6303;51.504;6.300;2022-12-05T05:06:01;6.30;;;5.70;;
12476;SDS011;6303;51.504;6.300;2022-12-05T05:08:28;6.85;;;6.15;;
12476;SDS011;6303;51.504;6.300;2022-12-05T05:11:03;6.70;;;6.00;;
12476;SDS011;6303;51.504;6.300;2022-12-05T05:13:34;6.40;;;5.80;;
12476;SDS011;6303;51.504;6.300;2022-12-05T05:16:01;6.57;;;5.93;;
12476;SDS011;6303;51.504;6.300;2022-12-05T05:18:30;6.80;;;6.20;;
12476;SDS011;6303;51.504;6.300;2022-12-05T05:20:57;6.35;;;5.75;;
12476;SDS011;6303;51.504;6.300;2022-12-05T05:23:24;6.47;;;5.88;;
12476;SDS011;6303;51.504;6.300;2022-12-05T05:25:51;6.47;;;5.88;;
12476;SDS011;6303;51.504;6.300;2022-12-05T05:28:19;6.40;;;5.80;;
12476;SDS011;6303;51.504;6.300;2022-12-05T05:30:47;6.60;;;6.00;;
12476;SDS011;6303;51.504;6.300;2022-12-05T05:33:14;6.15;;;5.55;;
12476;SDS011;6303;51.504;6.300;2022-12-05T05:35:42;6.18;;;5.57;;
12476;SDS011;6303;51.504;6.300;2022-12-05T05:38:09;6.38;;;5.78;;
12476;SDS011;6303;51.504;6.300;2022-12-05T05:40:36;6.72;;;6.13;;
12476;SDS011;6303;51.504;6.300;2022-12-05T05:43:03;6.07;;;5.57;;
12476;SDS011;6303;51.504;6.300;2022-12-05T05:45:30;6.45;;;5.85;;
12476;SDS011;6303;51.504;6.300;2022-12-05T05:47:57;7.05;;;6.35;;
12476;SDS011;6303;51.504;6.300;2022-12-05T05:50:24;7.47;;;6.70;;
12476;SDS011;6303;51.504;6.300;2022-12-05T05:52:53;6.93;;;6.32;;
12476;SDS011;6303;51.504;6.300;2022-12-05T05:55:20;7.10;;;6.40;;
12476;SDS011;6303;51.504;6.300;2022-12-05T05:57:47;7.75;;;6.95;;
12476;SDS011;6303;51.504;6.300;2022-12-05T06:00:14;7.70;;;7.00;;
12476;SDS011;6303;51.504;6.300;2022-12-05T06:02:42;7.45;;;6.65;;
12476;SDS011;6303;51.504;6.300;2022-12-05T06:05:09;7.18;;;6.47;;
12476;SDS011;6303;51.504;6.300;2022-12-05T06:07:36;7.35;;;6.18;;
12476;SDS011;6303;51.504;6.300;2022-12-05T06:10:05;6.93;;;6.22;;
12476;SDS011;6303;51.504;6.300;2022-12-05T06:12:33;7.28;;;6.45;;
12476;SDS011;6303;51.504;6.300;2022-12-05T06:15:00;6.68;;;6.00;;
12476;SDS011;6303;51.504;6.300;2022-12-05T06:17:27;7.20;;;6.40;;
12476;SDS011;6303;51.504;6.300;2022-12-05T06:19:54;6.72;;;6.00;;
12476;SDS011;6303;51.504;6.300;2022-12-05T06:22:21;7.43;;;6.10;;
12476;SDS011;6303;51.504;6.300;2022-12-05T06:24:48;7.00;;;6.30;;
12476;SDS011;6303;51.504;6.300;2022-12-05T06:27:17;8.20;;;6.25;;
12476;SDS011;6303;51.504;6.300;2022-12-05T06:29:44;7.00;;;5.78;;
12476;SDS011;6303;51.504;6.300;2022-12-05T06:32:11;6.97;;;6.28;;
12476;SDS011;6303;51.504;6.300;2022-12-05T06:34:38;9.75;;;6.75;;
12476;SDS011;6303;51.504;6.300;2022-12-05T06:37:05;10.65;;;6.75;;
12476;SDS011;6303;51.504;6.300;2022-12-05T06:39:32;15.82;;;8.27;;
12476;SDS011;6303;51.504;6.300;2022-12-05T06:41:59;17.23;;;8.23;;
12476;SDS011;6303;51.504;6.300;2022-12-05T06:44:28;15.15;;;7.93;;
12476;SDS011;6303;51.504;6.300;2022-12-05T06:46:55;13.52;;;7.93;;
12476;SDS011;6303;51.504;6.300;2022-12-05T06:49:22;16.13;;;7.55;;
12476;SDS011;6303;51.504;6.300;2022-12-05T06:51:51;12.82;;;7.75;;
12476;SDS011;6303;51.504;6.300;2022-12-05T06:54:18;14.90;;;7.97;;
12476;SDS011;6303;51.504;6.300;2022-12-05T06:56:45;12.02;;;7.15;;
12476;SDS011;6303;51.504;6.300;2022-12-05T06:59:12;11.60;;;7.38;;
12476;SDS011;6303;51.504;6.300;2022-12-05T07:01:41;11.90;;;7.28;;
12476;SDS011;6303;51.504;6.300;2022-12-05T07:04:09;9.93;;;6.85;;
12476;SDS011;6303;51.504;6.300;2022-12-05T07:06:38;10.57;;;7.07;;
12476;SDS011;6303;51.504;6.300;2022-12-05T07:09:06;9.95;;;7.15;;
12476;SDS011;6303;51.504;6.300;2022-12-05T07:11:33;8.20;;;6.40;;
12476;SDS011;6303;51.504;6.300;2022-12-05T07:14:01;10.35;;;6.65;;
12476;SDS011;6303;51.504;6.300;2022-12-05T07:16:28;11.57;;;6.80;;
12476;SDS011;6303;51.504;6.300;2022-12-05T07:18:57;9.45;;;6.40;;
12476;SDS011;6303;51.504;6.300;2022-12-05T07:21:24;10.38;;;6.50;;
12476;SDS011;6303;51.504;6.300;2022-12-05T07:23:51;8.55;;;6.10;;
12476;SDS011;6303;51.504;6.300;2022-12-05T07:26:19;9.38;;;6.60;;
12476;SDS011;6303;51.504;6.300;2022-12-05T07:28:48;10.48;;;6.80;;
12476;SDS011;6303;51.504;6.300;2022-12-05T07:31:17;11.02;;;6.95;;
12476;SDS011;6303;51.504;6.300;2022-12-05T07:33:46;9.63;;;6.55;;
12476;SDS011;6303;51.504;6.300;2022-12-05T07:36:15;9.35;;;6.80;;
12476;SDS011;6303;51.504;6.300;2022-12-05T07:38:44;8.32;;;5.95;;
12476;SDS011;6303;51.504;6.300;2022-12-05T07:41:13;10.55;;;6.38;;
12476;SDS011;6303;51.504;6.300;2022-12-05T07:43:44;10.27;;;6.65;;
12476;SDS011;6303;51.504;6.300;2022-12-05T07:46:11;7.93;;;5.78;;
12476;SDS011;6303;51.504;6.300;2022-12-05T07:48:39;7.97;;;5.93;;
12476;SDS011;6303;51.504;6.300;2022-12-05T07:51:06;9.73;;;5.97;;
12476;SDS011;6303;51.504;6.300;2022-12-05T07:53:36;8.48;;;6.55;;
12476;SDS011;6303;51.504;6.300;2022-12-05T07:56:06;7.72;;;5.78;;
12476;SDS011;6303;51.504;6.300;2022-12-05T07:58:34;8.25;;;6.13;;
12476;SDS011;6303;51.504;6.300;2022-12-05T08:01:05;6.70;;;5.75;;
12476;SDS011;6303;51.504;6.300;2022-12-05T08:03:33;9.18;;;6.22;;
12476;SDS011;6303;51.504;6.300;2022-12-05T08:06:01;9.07;;;6.18;;
12476;SDS011;6303;51.504;6.300;2022-12-05T08:08:29;7.72;;;5.88;;
12476;SDS011;6303;51.504;6.300;2022-12-05T08:11:01;7.07;;;6.05;;
12476;SDS011;6303;51.504;6.300;2022-12-05T08:13:28;8.52;;;6.18;;
12476;SDS011;6303;51.504;6.300;2022-12-05T08:15:59;7.97;;;6.00;;
12476;SDS011;6303;51.504;6.300;2022-12-05T08:18:27;6.90;;;6.13;;
12476;SDS011;6303;51.504;6.300;2022-12-05T08:20:54;6.63;;;5.80;;
12476;SDS011;6303;51.504;6.300;2022-12-05T08:23:21;7.85;;;6.25;;
12476;SDS011;6303;51.504;6.300;2022-12-05T08:25:48;7.10;;;5.97;;
12476;SDS011;6303;51.504;6.300;2022-12-05T08:28:16;7.00;;;5.68;;
12476;SDS011;6303;51.504;6.300;2022-12-05T08:30:43;7.95;;;6.13;;
12476;SDS011;6303;51.504;6.300;2022-12-05T08:33:10;7.43;;;5.97;;
12476;SDS011;6303;51.504;6.300;2022-12-05T08:35:37;6.93;;;5.72;;
12476;SDS011;6303;51.504;6.300;2022-12-05T08:38:04;6.82;;;5.93;;
12476;SDS011;6303;51.504;6.300;2022-12-05T08:40:31;6.63;;;5.53;;
12476;SDS011;6303;51.504;6.300;2022-12-05T08:42:58;6.80;;;5.78;;
12476;SDS011;6303;51.504;6.300;2022-12-05T08:45:27;6.22;;;5.63;;
12476;SDS011;6303;51.504;6.300;2022-12-05T08:47:54;6.82;;;5.72;;
12476;SDS011;6303;51.504;6.300;2022-12-05T08:50:21;6.22;;;5.60;;
12476;SDS011;6303;51.504;6.300;2022-12-05T08:52:48;6.43;;;5.75;;
12476;SDS011;6303;51.504;6.300;2022-12-05T08:55:15;7.15;;;6.03;;
12476;SDS011;6303;51.504;6.300;2022-12-05T08:57:42;5.90;;;5.30;;
12476;SDS011;6303;51.504;6.300;2022-12-05T09:00:09;6.18;;;5.32;;
12476;SDS011;6303;51.504;6.300;2022-12-05T09:02:38;6.10;;;5.32;;
12476;SDS011;6303;51.504;6.300;2022-12-05T09:05:06;5.47;;;4.95;;
12476;SDS011;6303;51.504;6.300;2022-12-05T09:07:34;5.80;;;5.30;;
12476;SDS011;6303;51.504;6.300;2022-12-05T09:10:01;6.03;;;5.43;;
12476;SDS011;6303;51.504;6.300;2022-12-05T09:12:28;5.70;;;5.10;;
12476;SDS011;6303;51.504;6.300;2022-12-05T09:14:55;5.35;;;4.85;;
12476;SDS011;6303;51.504;6.300;2022-12-05T09:17:22;5.88;;;5.10;;
12476;SDS011;6303;51.504;6.300;2022-12-05T09:19:51;5.68;;;5.00;;
12476;SDS011;6303;51.504;6.300;2022-12-05T09:22:18;5.68;;;4.75;;
12476;SDS011;6303;51.504;6.300;2022-12-05T09:24:46;5.85;;;5.05;;
12476;SDS011;6303;51.504;6.300;2022-12-05T09:27:14;5.03;;;4.53;;
12476;SDS011;6303;51.504;6.300;2022-12-05T09:29:41;6.28;;;4.88;;
12476;SDS011;6303;51.504;6.300;2022-12-05T09:32:08;5.68;;;4.72;;
12476;SDS011;6303;51.504;6.300;2022-12-05T09:34:36;5.75;;;4.75;;
12476;SDS011;6303;51.504;6.300;2022-12-05T09:37:05;5.57;;;4.93;;
12476;SDS011;6303;51.504;6.300;2022-12-05T09:39:33;5.53;;;4.97;;
12476;SDS011;6303;51.504;6.300;2022-12-05T09:42:05;5.05;;;4.60;;
12476;SDS011;6303;51.504;6.300;2022-12-05T09:44:52;5.10;;;4.60;;
12476;SDS011;6303;51.504;6.300;2022-12-05T09:47:34;4.95;;;4.50;;
12476;SDS011;6303;51.504;6.300;2022-12-05T09:50:12;5.45;;;4.95;;
12476;SDS011;6303;51.504;6.300;2022-12-05T09:52:50;5.80;;;5.25;;
12476;SDS011;6303;51.504;6.300;2022-12-05T09:55:23;5.43;;;4.43;;
12476;SDS011;6303;51.504;6.300;2022-12-05T09:57:53;5.95;;;4.70;;
12476;SDS011;6303;51.504;6.300;2022-12-05T10:00:24;6.07;;;4.65;;
12476;SDS011;6303;51.504;6.300;2022-12-05T10:02:55;5.82;;;5.20;;
12476;SDS011;6303;51.504;6.300;2022-12-05T10:05:28;5.50;;;4.80;;
12476;SDS011;6303;51.504;6.300;2022-12-05T10:08:09;4.93;;;4.43;;
12476;SDS011;6303;51.504;6.300;2022-12-05T10:10:44;5.30;;;4.45;;
12476;SDS011;6303;51.504;6.300;2022-12-05T10:13:21;4.85;;;4.43;;
12476;SDS011;6303;51.504;6.300;2022-12-05T10:15:56;4.80;;;4.30;;
12476;SDS011;6303;51.504;6.300;2022-12-05T10:18:29;5.20;;;4.70;;
12476;SDS011;6303;51.504;6.300;2022-12-05T10:21:03;5.07;;;4.57;;
12476;SDS011;6303;51.504;6.300;2022-12-05T10:23:41;7.40;;;4.60;;
12476;SDS011;6303;51.504;6.300;2022-12-05T10:26:14;4.85;;;4.35;;
12476;SDS011;6303;51.504;6.300;2022-12-05T10:28:45;4.95;;;4.45;;
12476;SDS011;6303;51.504;6.300;2022-12-05T10:31:18;4.90;;;4.40;;
12476;SDS011;6303;51.504;6.300;2022-12-05T10:33:50;4.97;;;4.47;;
12476;SDS011;6303;51.504;6.300;2022-12-05T10:36:23;5.03;;;4.28;;
12476;SDS011;6303;51.504;6.300;2022-12-05T10:38:52;4.78;;;4.38;;
12476;SDS011;6303;51.504;6.300;2022-12-05T10:41:20;4.65;;;4.10;;
12476;SDS011;6303;51.504;6.300;2022-12-05T10:43:48;4.93;;;4.43;;
12476;SDS011;6303;51.504;6.300;2022-12-05T10:46:15;4.88;;;4.28;;
12476;SDS011;6303;51.504;6.300;2022-12-05T10:48:42;4.95;;;4.35;;
12476;SDS011;6303;51.504;6.300;2022-12-05T10:51:12;4.40;;;4.00;;
12476;SDS011;6303;51.504;6.300;2022-12-05T10:53:41;4.50;;;4.10;;
12476;SDS011;6303;51.504;6.300;2022-12-05T10:59:11;4.53;;;4.13;;
12476;SDS011;6303;51.504;6.300;2022-12-05T11:01:42;4.45;;;4.05;;
12476;SDS011;6303;51.504;6.300;2022-12-05T11:04:19;4.55;;;4.15;;
12476;SDS011;6303;51.504;6.300;2022-12-05T11:06:53;4.22;;;3.88;;
12476;SDS011;6303;51.504;6.300;2022-12-05T11:09:23;4.82;;;4.30;;
12476;SDS011;6303;51.504;6.300;2022-12-05T11:11:59;4.53;;;3.95;;
12476;SDS011;6303;51.504;6.300;2022-12-05T11:14:29;3.95;;;3.65;;
12476;SDS011;6303;51.504;6.300;2022-12-05T11:16:58;4.22;;;3.83;;
12476;SDS011;6303;51.504;6.300;2022-12-05T11:19:27;4.28;;;3.88;;
12476;SDS011;6303;51.504;6.300;2022-12-05T11:21:56;4.13;;;3.83;;
12476;SDS011;6303;51.504;6.300;2022-12-05T11:24:25;4.30;;;4.00;;
12476;SDS011;6303;51.504;6.300;2022-12-05T11:26:54;4.13;;;3.83;;
12476;SDS011;6303;51.504;6.300;2022-12-05T11:29:32;4.38;;;3.97;;
12476;SDS011;6303;51.504;6.300;2022-12-05T11:32:01;4.30;;;3.90;;
12476;SDS011;6303;51.504;6.300;2022-12-05T11:34:34;4.10;;;3.80;;
12476;SDS011;6303;51.504;6.300;2022-12-05T11:37:06;4.32;;;3.92;;
12476;SDS011;6303;51.504;6.300;2022-12-05T11:39:38;4.00;;;3.65;;
12476;SDS011;6303;51.504;6.300;2022-12-05T11:42:17;3.90;;;3.60;;
12476;SDS011;6303;51.504;6.300;2022-12-05T11:44:59;4.05;;;3.75;;
12476;SDS011;6303;51.504;6.300;2022-12-05T11:47:54;4.15;;;3.78;;
12476;SDS011;6303;51.504;6.300;2022-12-05T11:50:34;4.15;;;3.75;;
12476;SDS011;6303;51.504;6.300;2022-12-05T11:56:02;4.30;;;3.95;;
12476;SDS011;6303;51.504;6.300;2022-12-05T11:58:46;3.85;;;3.55;;
12476;SDS011;6303;51.504;6.300;2022-12-05T12:01:29;4.00;;;3.70;;
12476;SDS011;6303;51.504;6.300;2022-12-05T12:04:07;3.83;;;3.53;;
12476;SDS011;6303;51.504;6.300;2022-12-05T12:07:01;4.00;;;3.70;;
12476;SDS011;6303;51.504;6.300;2022-12-05T12:09:46;4.00;;;3.70;;
12476;SDS011;6303;51.504;6.300;2022-12-05T12:12:22;3.70;;;3.40;;
12476;SDS011;6303;51.504;6.300;2022-12-05T12:15:00;3.97;;;3.67;;
12476;SDS011;6303;51.504;6.300;2022-12-05T12:17:37;3.85;;;3.55;;
12476;SDS011;6303;51.504;6.300;2022-12-05T12:20:17;3.80;;;3.50;;
12476;SDS011;6303;51.504;6.300;2022-12-05T12:23:05;3.53;;;3.22;;
12476;SDS011;6303;51.504;6.300;2022-12-05T12:25:43;3.65;;;3.35;;
12476;SDS011;6303;51.504;6.300;2022-12-05T12:28:21;4.07;;;3.70;;
12476;SDS011;6303;51.504;6.300;2022-12-05T12:31:00;4.13;;;3.72;;
12476;SDS011;6303;51.504;6.300;2022-12-05T12:33:35;3.53;;;3.22;;
12476;SDS011;6303;51.504;6.300;2022-12-05T12:36:10;3.53;;;3.22;;
12476;SDS011;6303;51.504;6.300;2022-12-05T12:38:50;3.60;;;3.30;;
12476;SDS011;6303;51.504;6.300;2022-12-05T12:41:40;3.75;;;3.42;;
12476;SDS011;6303;51.504;6.300;2022-12-05T12:44:23;3.60;;;3.30;;
12476;SDS011;6303;51.504;6.300;2022-12-05T12:47:12;3.78;;;3.47;;
12476;SDS011;6303;51.504;6.300;2022-12-05T12:49:48;7.03;;;3.42;;
12476;SDS011;6303;51.504;6.300;2022-12-05T12:52:25;3.58;;;3.33;;
12476;SDS011;6303;51.504;6.300;2022-12-05T12:55:03;3.50;;;3.20;;
12476;SDS011;6303;51.504;6.300;2022-12-05T12:57:47;3.67;;;3.38;;
12476;SDS011;6303;51.504;6.300;2022-12-05T13:00:27;3.67;;;3.38;;
12476;SDS011;6303;51.504;6.300;2022-12-05T13:03:04;3.42;;;3.13;;
12476;SDS011;6303;51.504;6.300;2022-12-05T13:05:36;3.65;;;3.35;;
12476;SDS011;6303;51.504;6.300;2022-12-05T13:08:10;3.58;;;3.28;;
12476;SDS011;6303;51.504;6.300;2022-12-05T13:10:42;3.40;;;3.10;;
12476;SDS011;6303;51.504;6.300;2022-12-05T13:13:11;3.35;;;3.05;;
12476;SDS011;6303;51.504;6.300;2022-12-05T13:15:42;3.33;;;3.03;;
12476;SDS011;6303;51.504;6.300;2022-12-05T13:18:15;3.30;;;3.10;;
12476;SDS011;6303;51.504;6.300;2022-12-05T13:20:43;3.17;;;2.97;;
12476;SDS011;6303;51.504;6.300;2022-12-05T13:23:13;4.55;;;3.17;;
12476;SDS011;6303;51.504;6.300;2022-12-05T13:25:44;2.95;;;2.75;;
12476;SDS011;6303;51.504;6.300;2022-12-05T13:28:16;3.17;;;2.90;;
12476;SDS011;6303;51.504;6.300;2022-12-05T13:30:50;3.28;;;3.08;;
12476;SDS011;6303;51.504;6.300;2022-12-05T13:33:28;3.40;;;3.15;;
12476;SDS011;6303;51.504;6.300;2022-12-05T13:36:02;3.60;;;3.30;;
12476;SDS011;6303;51.504;6.300;2022-12-05T13:38:56;3.10;;;2.90;;
12476;SDS011;6303;51.504;6.300;2022-12-05T13:41:42;3.30;;;3.10;;
12476;SDS011;6303;51.504;6.300;2022-12-05T13:44:30;3.35;;;3.15;;
12476;SDS011;6303;51.504;6.300;2022-12-05T13:47:02;3.10;;;2.90;;
12476;SDS011;6303;51.504;6.300;2022-12-05T13:49:36;3.15;;;2.95;;
12476;SDS011;6303;51.504;6.300;2022-12-05T13:52:11;3.35;;;3.05;;
12476;SDS011;6303;51.504;6.300;2022-12-05T13:54:46;2.90;;;2.70;;
12476;SDS011;6303;51.504;6.300;2022-12-05T14:00:19;3.00;;;2.80;;
12476;SDS011;6303;51.504;6.300;2022-12-05T14:02:52;3.13;;;2.92;;
12476;SDS011;6303;51.504;6.300;2022-12-05T14:11:27;3.30;;;3.10;;
12476;SDS011;6303;51.504;6.300;2022-12-05T14:13:54;2.78;;;2.58;;
12476;SDS011;6303;51.504;6.300;2022-12-05T14:19:43;3.20;;;3.00;;
12476;SDS011;6303;51.504;6.300;2022-12-05T14:25:22;3.10;;;2.90;;
12476;SDS011;6303;51.504;6.300;2022-12-05T14:28:10;2.90;;;2.70;;
12476;SDS011;6303;51.504;6.300;2022-12-05T14:30:48;2.90;;;2.70;;
12476;SDS011;6303;51.504;6.300;2022-12-05T14:33:24;2.90;;;2.70;;
12476;SDS011;6303;51.504;6.300;2022-12-05T14:35:51;3.05;;;2.85;;
12476;SDS011;6303;51.504;6.300;2022-12-05T14:38:21;2.83;;;2.63;;
12476;SDS011;6303;51.504;6.300;2022-12-05T14:40:53;2.90;;;2.70;;
12476;SDS011;6303;51.504;6.300;2022-12-05T14:43:25;3.00;;;2.80;;
12476;SDS011;6303;51.504;6.300;2022-12-05T14:45:56;3.17;;;2.92;;
12476;SDS011;6303;51.504;6.300;2022-12-05T14:48:27;3.10;;;2.80;;
12476;SDS011;6303;51.504;6.300;2022-12-05T14:50:57;2.83;;;2.63;;
12476;SDS011;6303;51.504;6.300;2022-12-05T14:53:33;3.08;;;2.78;;
12476;SDS011;6303;51.504;6.300;2022-12-05T14:56:09;2.78;;;2.58;;
12476;SDS011;6303;51.504;6.300;2022-12-05T14:58:49;2.75;;;2.55;;
12476;SDS011;6303;51.504;6.300;2022-12-05T15:01:21;3.20;;;3.00;;
12476;SDS011;6303;51.504;6.300;2022-12-05T15:03:59;3.08;;;2.80;;
12476;SDS011;6303;51.504;6.300;2022-12-05T15:06:35;2.78;;;2.58;;
12476;SDS011;6303;51.504;6.300;2022-12-05T15:09:26;3.15;;;2.90;;
12476;SDS011;6303;51.504;6.300;2022-12-05T15:12:03;2.85;;;2.65;;
12476;SDS011;6303;51.504;6.300;2022-12-05T15:14:38;2.92;;;2.72;;
12476;SDS011;6303;51.504;6.300;2022-12-05T15:17:11;2.60;;;2.40;;
12476;SDS011;6303;51.504;6.300;2022-12-05T15:19:41;2.80;;;2.60;;
12476;SDS011;6303;51.504;6.300;2022-12-05T15:22:16;2.80;;;2.50;;
12476;SDS011;6303;51.504;6.300;2022-12-05T15:24:48;3.35;;;2.65;;
12476;SDS011;6303;51.504;6.300;2022-12-05T15:27:15;3.25;;;2.90;;
12476;SDS011;6303;51.504;6.300;2022-12-05T15:29:42;3.10;;;2.90;;
12476;SDS011;6303;51.504;6.300;2022-12-05T15:32:17;2.60;;;2.40;;
12476;SDS011;6303;51.504;6.300;2022-12-05T15:34:50;2.80;;;2.60;;
12476;SDS011;6303;51.504;6.300;2022-12-05T15:37:23;3.10;;;2.70;;
12476;SDS011;6303;51.504;6.300;2022-12-05T15:39:55;2.80;;;2.60;;
12476;SDS011;6303;51.504;6.300;2022-12-05T15:42:25;3.30;;;3.00;;
12476;SDS011;6303;51.504;6.300;2022-12-05T15:44:59;3.67;;;2.70;;
12476;SDS011;6303;51.504;6.300;2022-12-05T15:47:41;2.95;;;2.70;;
12476;SDS011;6303;51.504;6.300;2022-12-05T15:50:11;2.80;;;2.60;;